Terminal Aerodrome Forecast
Issued by NWS Paducah, KY

Home | Current Version | Previous Version | Text Only | Print | Product List | Glossary Off
Versions: 1 2 3 4 5 6 7 8 9 10 11 12 13 14 15 16 17

000
FTUS43 KPAH 262211 AAD
TAFPAH
TAF AMD
KPAH 262211Z 2622/2718 18012G19KT P6SM VCSH SCT025 BKN050
     FM262300 18015G25KT P6SM VCTS OVC025CB
      TEMPO 2623/2703 2SM TSRA OVC012CB
     FM270500 25010KT P6SM SCT020 BKN030=

USA.gov is the U.S. government's official web portal to all federal, state and local government web resources and services.